Time;durP1;ratioP1;P1;durP2;ratioP2;P2;SDS_P1;SDS_P2;PMS_P1;PMS_P2;Temp;Humidity;BMP_temperature;BMP_pressure;BME280_temperature;BME280_humidity;BME280_pressure;Samples;Min_cycle;Max_cycle;Signal;HPM_P1;HPM_P2
2022/04/12 00:00:02;;;;;;;4.37;2.10;;;;;;;;;;1784703;80;21538;-70
2022/04/12 00:02:31;;;;;;;4.03;2.52;;;;;;;;;;1782688;80;21029;-70
2022/04/12 00:04:59;;;;;;;3.98;2.52;;;;;;;;;;1784682;80;21053;-70
2022/04/12 00:07:25;;;;;;;4.40;2.47;;;;;;;;;;1784538;80;21076;-69
2022/04/12 00:09:53;;;;;;;5.62;2.60;;;;;;;;;;1784330;80;21560;-69
2022/04/12 00:12:19;;;;;;;2.62;1.90;;;;;;;;;;1784788;80;21029;-69
2022/04/12 00:14:47;;;;;;;8.28;2.42;;;;;;;;;;1784446;80;21559;-69
2022/04/12 00:19:58;;;;;;;4.28;2.47;;;;;;;;;;1784545;80;21119;-69
2022/04/12 00:22:24;;;;;;;5.95;2.83;;;;;;;;;;1784731;80;21056;-69
2022/04/12 00:24:53;;;;;;;3.42;2.30;;;;;;;;;;1784298;80;21068;-69
2022/04/12 00:27:20;;;;;;;4.08;2.25;;;;;;;;;;1784651;80;21017;-69
2022/04/12 00:29:46;;;;;;;4.40;2.50;;;;;;;;;;1784394;80;21528;-70
2022/04/12 00:32:13;;;;;;;3.10;2.20;;;;;;;;;;1784875;80;21021;-69
2022/04/12 00:34:40;;;;;;;5.15;2.60;;;;;;;;;;1784392;80;21083;-69
2022/04/12 00:37:06;;;;;;;4.92;2.30;;;;;;;;;;1784728;80;21024;-70
2022/04/12 00:39:34;;;;;;;3.10;2.10;;;;;;;;;;1784660;80;21028;-71
2022/04/12 00:42:01;;;;;;;4.08;2.37;;;;;;;;;;1784772;80;21071;-71
2022/04/12 00:44:27;;;;;;;4.58;2.50;;;;;;;;;;1784686;80;21045;-71
2022/04/12 00:46:53;;;;;;;3.50;2.00;;;;;;;;;;1784703;80;21021;-70
2022/04/12 00:49:20;;;;;;;4.42;2.30;;;;;;;;;;1784628;80;21513;-72
2022/04/12 00:51:47;;;;;;;5.03;2.27;;;;;;;;;;1784640;80;21077;-71
2022/04/12 00:54:14;;;;;;;3.60;2.25;;;;;;;;;;1784633;80;21076;-71
2022/04/12 00:56:40;;;;;;;4.25;2.33;;;;;;;;;;1784514;80;21637;-72
2022/04/12 00:59:08;;;;;;;4.30;2.15;;;;;;;;;;1784380;80;21092;-71
2022/04/12 01:04:18;;;;;;;5.72;2.20;;;;;;;;;;1723465;79;21076;-71
2022/04/12 01:06:46;;;;;;;3.87;2.40;;;;;;;;;;1714272;83;21092;-70
2022/04/12 01:09:12;;;;;;;5.62;2.80;;;;;;;;;;1717705;83;21077;-71
2022/04/12 01:11:48;;;;;;;2.90;2.08;;;;;;;;;;1717438;83;21037;-71
2022/04/12 01:14:08;;;;;;;5.05;2.30;;;;;;;;;;1715893;83;21078;-71
2022/04/12 01:16:35;;;;;;;4.60;2.20;;;;;;;;;;1717539;83;21053;-71
2022/04/12 01:19:02;;;;;;;4.37;2.40;;;;;;;;;;1717489;83;21077;-71
2022/04/12 01:21:30;;;;;;;7.40;2.70;;;;;;;;;;1717684;83;21112;-72
2022/04/12 01:24:03;;;;;;;5.47;2.25;;;;;;;;;;1717530;83;21065;-72
2022/04/12 01:26:29;;;;;;;4.50;1.95;;;;;;;;;;1716750;83;21119;-72
2022/04/12 01:28:56;;;;;;;3.52;2.30;;;;;;;;;;1716479;83;21073;-71
2022/04/12 01:31:25;;;;;;;4.87;2.50;;;;;;;;;;1716818;83;21536;-72
2022/04/12 01:33:52;;;;;;;3.83;2.47;;;;;;;;;;1716378;83;21045;-71
2022/04/12 01:36:19;;;;;;;3.50;2.17;;;;;;;;;;1716798;83;21068;-72
2022/04/12 01:38:46;;;;;;;2.92;1.90;;;;;;;;;;1716415;83;21096;-72
2022/04/12 01:41:13;;;;;;;2.75;2.00;;;;;;;;;;1716416;83;21076;-71
2022/04/12 01:43:40;;;;;;;4.03;2.30;;;;;;;;;;1716656;83;21065;-71
2022/04/12 01:46:06;;;;;;;4.80;2.55;;;;;;;;;;1716359;83;21045;-71
2022/04/12 01:48:33;;;;;;;4.58;2.33;;;;;;;;;;1716891;83;21041;-70
2022/04/12 01:50:59;;;;;;;7.00;2.33;;;;;;;;;;1716649;83;21587;-71
2022/04/12 01:53:25;;;;;;;7.03;2.15;;;;;;;;;;1716520;83;21097;-71
2022/04/12 01:55:52;;;;;;;2.67;2.05;;;;;;;;;;1716672;83;21040;-71
2022/04/12 01:58:18;;;;;;;5.50;2.22;;;;;;;;;;1716444;83;21116;-71
2022/04/12 02:00:47;;;;;;;5.22;2.50;;;;;;;;;;1716476;83;21111;-71
2022/04/12 02:03:13;;;;;;;6.72;2.50;;;;;;;;;;1715361;83;21126;-71
2022/04/12 02:05:39;;;;;;;6.05;2.45;;;;;;;;;;1715977;83;21075;-72
2022/04/12 02:08:07;;;;;;;4.10;2.12;;;;;;;;;;1715964;83;21066;-71
2022/04/12 02:10:35;;;;;;;4.60;2.27;;;;;;;;;;1715694;84;21569;-71
2022/04/12 02:13:01;;;;;;;5.22;2.30;;;;;;;;;;1716121;83;21086;-71
2022/04/12 02:15:29;;;;;;;3.67;2.25;;;;;;;;;;1715860;83;21070;-72
2022/04/12 02:17:57;;;;;;;3.02;2.40;;;;;;;;;;1715898;84;21063;-72
2022/04/12 02:20:26;;;;;;;3.33;2.25;;;;;;;;;;1715918;83;21082;-71
2022/04/12 02:22:53;;;;;;;3.67;2.30;;;;;;;;;;1715709;84;21055;-71
2022/04/12 02:25:19;;;;;;;6.03;2.37;;;;;;;;;;1716214;83;21078;-71
2022/04/12 02:27:45;;;;;;;3.27;2.30;;;;;;;;;;1715859;84;21127;-72
2022/04/12 02:30:13;;;;;;;4.75;2.50;;;;;;;;;;1715689;84;21585;-72
2022/04/12 02:32:39;;;;;;;6.22;2.67;;;;;;;;;;1715966;83;20999;-72
2022/04/12 02:35:06;;;;;;;7.12;3.27;;;;;;;;;;1715722;84;21110;-72
2022/04/12 02:37:33;;;;;;;5.35;2.83;;;;;;;;;;1716012;83;21069;-71
2022/04/12 02:39:59;;;;;;;5.22;2.67;;;;;;;;;;1715800;84;21110;-71
2022/04/12 02:42:25;;;;;;;5.22;2.83;;;;;;;;;;1715835;84;21134;-71
2022/04/12 02:44:52;;;;;;;5.25;2.83;;;;;;;;;;1715992;84;21074;-71
2022/04/12 02:47:18;;;;;;;4.72;3.02;;;;;;;;;;1716159;84;21646;-72
2022/04/12 02:49:46;;;;;;;5.62;2.72;;;;;;;;;;1715694;84;21050;-72
2022/04/12 02:52:12;;;;;;;6.03;2.72;;;;;;;;;;1716188;83;21071;-71
2022/04/12 02:54:39;;;;;;;5.53;2.80;;;;;;;;;;1715900;84;21067;-71
2022/04/12 02:57:06;;;;;;;5.70;2.92;;;;;;;;;;1715805;84;21047;-72
2022/04/12 02:59:32;;;;;;;4.58;2.35;;;;;;;;;;1715993;83;21156;-72
2022/04/12 03:01:59;;;;;;;5.75;3.45;;;;;;;;;;1715954;84;21070;-71
2022/04/12 03:04:26;;;;;;;6.83;2.70;;;;;;;;;;1700512;83;21165;-72
2022/04/12 03:06:52;;;;;;;4.95;2.85;;;;;;;;;;1674260;86;21074;-71
2022/04/12 03:09:20;;;;;;;6.83;2.98;;;;;;;;;;1674150;86;21077;-72
2022/04/12 03:11:46;;;;;;;7.05;2.70;;;;;;;;;;1673841;86;21042;-72
2022/04/12 03:14:14;;;;;;;5.25;2.20;;;;;;;;;;1674039;86;21065;-71
2022/04/12 03:16:40;;;;;;;7.28;2.52;;;;;;;;;;1674101;86;21644;-70
2022/04/12 03:19:06;;;;;;;5.97;2.42;;;;;;;;;;1673821;86;22235;-71
2022/04/12 03:21:32;;;;;;;6.03;2.58;;;;;;;;;;1674142;86;21085;-71
2022/04/12 03:23:58;;;;;;;5.92;2.72;;;;;;;;;;1674092;86;21089;-71
2022/04/12 03:26:24;;;;;;;4.92;2.77;;;;;;;;;;1674092;86;21045;-71
2022/04/12 03:28:51;;;;;;;4.25;2.83;;;;;;;;;;1674194;86;21058;-71
2022/04/12 03:31:17;;;;;;;5.17;2.70;;;;;;;;;;1674158;86;21093;-71
2022/04/12 03:33:46;;;;;;;3.77;2.05;;;;;;;;;;1674425;86;21585;-71
2022/04/12 03:36:13;;;;;;;4.37;2.02;;;;;;;;;;1641465;87;21076;-72
2022/04/12 03:38:48;;;;;;;4.25;2.20;;;;;;;;;;1630779;88;21101;-72
2022/04/12 03:41:08;;;;;;;3.17;2.30;;;;;;;;;;1707118;84;21048;-71
2022/04/12 03:43:34;;;;;;;6.55;2.55;;;;;;;;;;1707971;84;20988;-71
2022/04/12 03:46:00;;;;;;;4.20;2.60;;;;;;;;;;1708294;84;20988;-72
2022/04/12 03:48:28;;;;;;;4.10;2.05;;;;;;;;;;1708172;84;21087;-72
2022/04/12 03:50:55;;;;;;;5.25;2.90;;;;;;;;;;1708231;84;21017;-72
2022/04/12 03:53:21;;;;;;;6.62;2.95;;;;;;;;;;1708105;84;21606;-71
2022/04/12 03:55:48;;;;;;;6.33;2.92;;;;;;;;;;1708071;84;21016;-70
2022/04/12 03:58:19;;;;;;;4.65;2.60;;;;;;;;;;1708388;84;21052;-71
2022/04/12 04:00:43;;;;;;;3.30;2.20;;;;;;;;;;1707695;84;21087;-71
2022/04/12 04:03:09;;;;;;;3.95;2.33;;;;;;;;;;1708305;84;21056;-71
2022/04/12 04:05:35;;;;;;;4.03;2.60;;;;;;;;;;1718771;83;22140;-71
2022/04/12 04:08:01;;;;;;;5.20;2.30;;;;;;;;;;1723211;83;21031;-71
2022/04/12 04:10:28;;;;;;;5.97;2.65;;;;;;;;;;1723438;83;21755;-71
2022/04/12 04:12:55;;;;;;;8.18;2.58;;;;;;;;;;1723477;83;21558;-71
2022/04/12 04:15:21;;;;;;;6.17;2.65;;;;;;;;;;1723444;83;21027;-70
2022/04/12 04:17:48;;;;;;;4.33;2.22;;;;;;;;;;1723556;83;21523;-71
2022/04/12 04:20:15;;;;;;;4.35;2.70;;;;;;;;;;1723331;83;21110;-70
2022/04/12 04:22:41;;;;;;;3.80;2.55;;;;;;;;;;1723458;83;21062;-71
2022/04/12 04:25:09;;;;;;;4.05;2.47;;;;;;;;;;1723108;83;21074;-72
2022/04/12 04:27:36;;;;;;;7.47;2.52;;;;;;;;;;1723374;83;21039;-71
2022/04/12 04:30:05;;;;;;;4.05;2.45;;;;;;;;;;1723461;83;21035;-72
2022/04/12 04:32:32;;;;;;;4.33;2.67;;;;;;;;;;1723380;83;21048;-72
2022/04/12 04:34:59;;;;;;;6.15;2.87;;;;;;;;;;1723173;83;21106;-71
2022/04/12 04:37:25;;;;;;;7.95;2.70;;;;;;;;;;1723469;83;21024;-71
2022/04/12 04:39:53;;;;;;;8.00;2.77;;;;;;;;;;1723210;83;21047;-71
2022/04/12 04:42:23;;;;;;;4.42;2.45;;;;;;;;;;1723258;83;21102;-72
2022/04/12 04:44:49;;;;;;;5.75;2.42;;;;;;;;;;1723313;83;21027;-73
2022/04/12 04:47:17;;;;;;;4.80;2.33;;;;;;;;;;1723124;83;21577;-72
2022/04/12 04:49:44;;;;;;;4.87;2.40;;;;;;;;;;1723062;83;21053;-72
2022/04/12 04:52:10;;;;;;;6.30;2.70;;;;;;;;;;1723056;83;21565;-72
2022/04/12 04:54:36;;;;;;;5.33;2.60;;;;;;;;;;1723170;83;21066;-70
2022/04/12 04:57:03;;;;;;;4.40;2.67;;;;;;;;;;1723214;83;20984;-70
2022/04/12 04:59:29;;;;;;;5.80;2.35;;;;;;;;;;1723063;83;21054;-70
2022/04/12 05:01:56;;;;;;;4.78;3.22;;;;;;;;;;1723003;83;21050;-72
2022/04/12 05:04:22;;;;;;;5.90;2.65;;;;;;;;;;1723043;83;21067;-72
2022/04/12 05:06:48;;;;;;;6.55;2.30;;;;;;;;;;1722987;83;21023;-71
2022/04/12 05:09:14;;;;;;;3.60;2.30;;;;;;;;;;1723032;83;21578;-72
2022/04/12 05:11:42;;;;;;;5.50;2.80;;;;;;;;;;1723031;83;21086;-72
2022/04/12 05:14:08;;;;;;;4.65;2.58;;;;;;;;;;1723007;83;21562;-72
2022/04/12 05:16:35;;;;;;;5.75;2.45;;;;;;;;;;1723205;83;20997;-72
2022/04/12 05:19:03;;;;;;;3.95;2.17;;;;;;;;;;1723179;83;22236;-71
2022/04/12 05:21:31;;;;;;;4.83;2.33;;;;;;;;;;1723338;83;21150;-71
2022/04/12 05:23:57;;;;;;;5.42;2.25;;;;;;;;;;1723192;83;21059;-71
2022/04/12 05:26:24;;;;;;;6.45;2.42;;;;;;;;;;1722965;83;21042;-71
2022/04/12 05:28:50;;;;;;;5.75;2.40;;;;;;;;;;1723356;83;21050;-71
2022/04/12 05:31:16;;;;;;;5.17;2.67;;;;;;;;;;1722923;83;21535;-72
2022/04/12 05:33:42;;;;;;;5.70;2.60;;;;;;;;;;1723207;83;21077;-72
2022/04/12 05:36:08;;;;;;;4.85;2.20;;;;;;;;;;1723217;83;21107;-71
2022/04/12 05:38:35;;;;;;;5.58;2.58;;;;;;;;;;1723572;83;21467;-72
2022/04/12 05:41:01;;;;;;;5.90;2.72;;;;;;;;;;1723144;83;21035;-72
2022/04/12 05:43:27;;;;;;;5.12;2.50;;;;;;;;;;1723322;83;21039;-72
2022/04/12 05:45:53;;;;;;;5.92;2.47;;;;;;;;;;1723240;83;21569;-72
2022/04/12 05:48:20;;;;;;;3.85;2.27;;;;;;;;;;1723080;83;21035;-72
2022/04/12 05:50:46;;;;;;;7.00;2.92;;;;;;;;;;1723205;83;21038;-72
2022/04/12 05:53:12;;;;;;;5.92;2.47;;;;;;;;;;1723306;83;21524;-72
2022/04/12 05:55:38;;;;;;;6.25;2.30;;;;;;;;;;1723314;83;20987;-73
2022/04/12 05:58:04;;;;;;;5.75;2.60;;;;;;;;;;1723360;83;21034;-72
2022/04/12 06:00:31;;;;;;;6.37;3.17;;;;;;;;;;1723034;83;21027;-71
2022/04/12 06:02:57;;;;;;;4.05;2.35;;;;;;;;;;1723365;83;21105;-71
2022/04/12 06:05:25;;;;;;;6.17;2.72;;;;;;;;;;1722880;83;21083;-72
2022/04/12 06:07:51;;;;;;;5.28;2.83;;;;;;;;;;1723225;83;21015;-72
2022/04/12 06:10:18;;;;;;;6.28;2.52;;;;;;;;;;1722985;83;21047;-71
2022/04/12 06:12:46;;;;;;;4.25;2.85;;;;;;;;;;1723172;83;21039;-72
2022/04/12 06:15:12;;;;;;;4.47;2.52;;;;;;;;;;1723291;83;21023;-72
2022/04/12 06:17:39;;;;;;;3.87;2.27;;;;;;;;;;1723045;83;21576;-73
2022/04/12 06:20:11;;;;;;;5.35;2.77;;;;;;;;;;1723253;83;20987;-72
2022/04/12 06:22:37;;;;;;;4.67;2.15;;;;;;;;;;1722499;83;21063;-72
2022/04/12 06:25:05;;;;;;;4.95;2.50;;;;;;;;;;1722978;83;21576;-73
2022/04/12 06:27:41;;;;;;;4.00;2.25;;;;;;;;;;1723174;83;21581;-71
2022/04/12 06:30:11;;;;;;;4.53;2.35;;;;;;;;;;1722933;83;21146;-72
2022/04/12 06:32:37;;;;;;;5.90;2.90;;;;;;;;;;1722358;83;21030;-72
2022/04/12 06:35:06;;;;;;;4.28;2.58;;;;;;;;;;1722976;83;21039;-72
2022/04/12 06:37:32;;;;;;;4.90;2.52;;;;;;;;;;1723166;83;21569;-72
2022/04/12 06:39:59;;;;;;;5.97;2.55;;;;;;;;;;1723073;83;21007;-71
2022/04/12 06:42:25;;;;;;;4.92;2.72;;;;;;;;;;1723094;83;21012;-72
2022/04/12 06:44:52;;;;;;;4.58;2.50;;;;;;;;;;1723190;83;21102;-72
2022/04/12 06:47:19;;;;;;;3.98;2.30;;;;;;;;;;1723120;83;21039;-72
2022/04/12 06:49:46;;;;;;;5.58;2.35;;;;;;;;;;1723170;83;21094;-72
2022/04/12 06:52:12;;;;;;;6.62;2.95;;;;;;;;;;1723102;83;21078;-72
2022/04/12 06:54:39;;;;;;;4.35;2.30;;;;;;;;;;1722839;83;21071;-72
2022/04/12 06:57:05;;;;;;;4.83;2.20;;;;;;;;;;1723501;83;21502;-73
2022/04/12 06:59:33;;;;;;;4.65;2.25;;;;;;;;;;1723131;83;21028;-73
2022/04/12 07:01:59;;;;;;;5.45;2.83;;;;;;;;;;1723433;83;21483;-74
2022/04/12 07:04:25;;;;;;;5.17;2.90;;;;;;;;;;1723247;83;21506;-71
2022/04/12 07:06:52;;;;;;;5.55;3.15;;;;;;;;;;1709574;83;21050;-72
2022/04/12 07:09:20;;;;;;;5.20;2.95;;;;;;;;;;1708146;84;21071;-71
2022/04/12 07:11:48;;;;;;;4.10;2.12;;;;;;;;;;1708128;84;21083;-72
2022/04/12 07:14:14;;;;;;;5.67;2.27;;;;;;;;;;1708326;84;21122;-71
2022/04/12 07:16:40;;;;;;;16.17;2.80;;;;;;;;;;1708224;84;21086;-71
2022/04/12 07:19:07;;;;;;;3.87;2.17;;;;;;;;;;1708705;84;21098;-71
2022/04/12 07:21:33;;;;;;;4.50;2.30;;;;;;;;;;1708001;84;21044;-71
2022/04/12 07:23:59;;;;;;;5.37;2.77;;;;;;;;;;1708357;84;21066;-71
2022/04/12 07:26:26;;;;;;;5.28;2.17;;;;;;;;;;1708190;84;21063;-72
2022/04/12 07:28:53;;;;;;;4.37;2.00;;;;;;;;;;1687765;84;21011;-73
2022/04/12 07:31:19;;;;;;;3.83;2.25;;;;;;;;;;1708330;84;21035;-73
2022/04/12 07:33:45;;;;;;;3.95;2.22;;;;;;;;;;1708174;84;21530;-72
2022/04/12 07:36:12;;;;;;;5.37;2.20;;;;;;;;;;1708217;84;21122;-72
2022/04/12 07:38:38;;;;;;;7.75;2.40;;;;;;;;;;1708114;84;21074;-70
2022/04/12 07:41:04;;;;;;;4.78;2.62;;;;;;;;;;1708209;84;21047;-71
2022/04/12 07:43:31;;;;;;;6.12;2.50;;;;;;;;;;1708212;84;21036;-72
2022/04/12 07:45:58;;;;;;;4.58;2.08;;;;;;;;;;1707904;84;21070;-72
2022/04/12 07:48:24;;;;;;;8.10;2.45;;;;;;;;;;1708427;84;21087;-73
2022/04/12 07:50:50;;;;;;;3.77;1.90;;;;;;;;;;1707998;84;21071;-71
2022/04/12 07:53:18;;;;;;;5.95;2.30;;;;;;;;;;1708223;84;21058;-71
2022/04/12 07:55:44;;;;;;;5.12;2.30;;;;;;;;;;1707915;84;21082;-71
2022/04/12 07:58:10;;;;;;;3.72;1.90;;;;;;;;;;1707947;84;21641;-71
2022/04/12 08:00:39;;;;;;;3.83;2.17;;;;;;;;;;1708217;84;21063;-72
2022/04/12 08:03:07;;;;;;;5.10;2.20;;;;;;;;;;1707995;84;21686;-71
2022/04/12 08:05:34;;;;;;;3.33;2.10;;;;;;;;;;1711663;83;21093;-70
2022/04/12 08:08:01;;;;;;;4.65;2.10;;;;;;;;;;1723166;83;21542;-70
2022/04/12 08:10:29;;;;;;;3.65;2.02;;;;;;;;;;1723133;83;21363;-72
2022/04/12 08:12:56;;;;;;;4.05;2.05;;;;;;;;;;1723338;83;21042;-71
2022/04/12 08:15:23;;;;;;;5.67;2.12;;;;;;;;;;1723098;83;21051;-72
2022/04/12 08:17:51;;;;;;;9.08;2.20;;;;;;;;;;1723501;83;21498;-72
2022/04/12 08:20:17;;;;;;;4.42;2.02;;;;;;;;;;1723414;83;21015;-71
2022/04/12 08:22:43;;;;;;;2.05;1.55;;;;;;;;;;1723241;83;21035;-70
2022/04/12 08:25:09;;;;;;;3.65;1.87;;;;;;;;;;1723566;83;22157;-70
2022/04/12 08:27:36;;;;;;;3.20;1.75;;;;;;;;;;1723707;83;21138;-71
2022/04/12 08:30:04;;;;;;;5.80;2.10;;;;;;;;;;1723334;83;21027;-70
2022/04/12 08:32:31;;;;;;;4.62;2.08;;;;;;;;;;1723575;83;21501;-71
2022/04/12 08:34:58;;;;;;;4.28;1.75;;;;;;;;;;1723155;83;21019;-71
2022/04/12 08:37:24;;;;;;;3.60;1.75;;;;;;;;;;1723433;83;21503;-69
2022/04/12 08:39:51;;;;;;;3.02;1.87;;;;;;;;;;1723080;83;21035;-70
2022/04/12 08:42:19;;;;;;;3.98;2.45;;;;;;;;;;1723199;83;21027;-70
2022/04/12 08:44:45;;;;;;;6.97;2.30;;;;;;;;;;1723349;83;21079;-70
2022/04/12 08:47:13;;;;;;;5.25;2.27;;;;;;;;;;1723320;83;21503;-70
2022/04/12 08:49:39;;;;;;;3.17;1.95;;;;;;;;;;1723417;83;21050;-70
2022/04/12 08:52:12;;;;;;;5.80;1.87;;;;;;;;;;1722985;83;21538;-71
2022/04/12 08:54:39;;;;;;;3.95;1.90;;;;;;;;;;1723354;83;21567;-70
2022/04/12 08:57:05;;;;;;;5.20;1.98;;;;;;;;;;1723078;83;21012;-71
2022/04/12 08:59:32;;;;;;;5.33;2.42;;;;;;;;;;1723400;83;21054;-70
2022/04/12 09:01:58;;;;;;;4.45;2.02;;;;;;;;;;1722922;83;21538;-70
2022/04/12 09:04:28;;;;;;;5.58;2.10;;;;;;;;;;1723178;83;21090;-69
2022/04/12 09:06:58;;;;;;;3.25;1.77;;;;;;;;;;1722970;83;21083;-68
2022/04/12 09:09:25;;;;;;;3.50;2.00;;;;;;;;;;1723365;83;21020;-70
2022/04/12 09:11:57;;;;;;;3.85;1.90;;;;;;;;;;1722959;83;21028;-70
2022/04/12 09:14:24;;;;;;;3.70;1.72;;;;;;;;;;1722908;83;21064;-70
2022/04/12 09:16:52;;;;;;;3.90;1.95;;;;;;;;;;1723257;83;20980;-69
2022/04/12 09:19:20;;;;;;;5.75;2.52;;;;;;;;;;1723050;83;21031;-69
2022/04/12 09:21:47;;;;;;;4.12;1.90;;;;;;;;;;1719900;83;21051;-70
2022/04/12 09:24:21;;;;;;;6.90;2.20;;;;;;;;;;1723203;83;21027;-69
2022/04/12 09:26:54;;;;;;;6.12;2.00;;;;;;;;;;1722548;83;21046;-68
2022/04/12 09:29:22;;;;;;;5.13;2.27;;;;;;;;;;1723598;83;20991;-69
2022/04/12 09:31:48;;;;;;;3.77;1.70;;;;;;;;;;1722962;83;21058;-73
2022/04/12 09:34:14;;;;;;;5.72;2.30;;;;;;;;;;1723139;83;21467;-70
2022/04/12 09:36:41;;;;;;;3.35;1.62;;;;;;;;;;1700686;83;21003;-70
2022/04/12 09:39:07;;;;;;;4.15;2.30;;;;;;;;;;1723125;83;21012;-70
2022/04/12 09:41:35;;;;;;;4.33;1.90;;;;;;;;;;1722944;83;21522;-69
2022/04/12 09:44:08;;;;;;;3.67;1.90;;;;;;;;;;1723221;83;21523;-70
2022/04/12 09:46:35;;;;;;;4.90;2.00;;;;;;;;;;1723423;83;21023;-70
2022/04/12 09:49:01;;;;;;;3.60;1.72;;;;;;;;;;1723478;83;21464;-72
2022/04/12 09:51:27;;;;;;;3.98;1.75;;;;;;;;;;1723092;83;21020;-71
2022/04/12 09:53:54;;;;;;;4.15;2.08;;;;;;;;;;1723114;83;21031;-70
2022/04/12 09:56:21;;;;;;;3.60;1.80;;;;;;;;;;1723413;83;21015;-71
2022/04/12 09:58:48;;;;;;;2.70;1.57;;;;;;;;;;1723365;83;21502;-71
2022/04/12 10:01:15;;;;;;;4.50;1.85;;;;;;;;;;1723100;83;21063;-71
2022/04/12 10:03:45;;;;;;;3.15;1.72;;;;;;;;;;1723394;83;21570;-71
2022/04/12 10:06:12;;;;;;;5.70;1.95;;;;;;;;;;1719460;83;21000;-71
2022/04/12 10:08:39;;;;;;;3.20;1.55;;;;;;;;;;1708011;84;21032;-72
2022/04/12 10:11:06;;;;;;;4.42;1.95;;;;;;;;;;1707911;84;21004;-70
2022/04/12 10:13:33;;;;;;;3.02;1.70;;;;;;;;;;1708174;84;21009;-72
2022/04/12 10:16:00;;;;;;;5.15;1.80;;;;;;;;;;1688107;84;21036;-71
2022/04/12 10:18:27;;;;;;;4.60;1.98;;;;;;;;;;1708201;84;21040;-72
2022/04/12 10:20:53;;;;;;;3.40;1.60;;;;;;;;;;1708333;84;20989;-70
2022/04/12 10:23:21;;;;;;;3.35;1.95;;;;;;;;;;1708165;84;21071;-70
2022/04/12 10:25:48;;;;;;;3.20;2.08;;;;;;;;;;1688189;84;21036;-71
2022/04/12 10:28:15;;;;;;;3.25;2.00;;;;;;;;;;1708391;84;21032;-70
2022/04/12 10:30:42;;;;;;;3.87;1.85;;;;;;;;;;1707928;84;21051;-72
2022/04/12 10:33:09;;;;;;;2.75;1.72;;;;;;;;;;1708371;84;21051;-72
2022/04/12 10:35:43;;;;;;;3.75;2.20;;;;;;;;;;1687843;84;21095;-72
2022/04/12 10:38:10;;;;;;;2.52;1.67;;;;;;;;;;1708032;84;21403;-71
2022/04/12 10:40:36;;;;;;;3.12;1.80;;;;;;;;;;1708212;84;21630;-71
2022/04/12 10:43:02;;;;;;;4.12;1.92;;;;;;;;;;1707944;84;21036;-72
2022/04/12 10:45:32;;;;;;;3.90;2.00;;;;;;;;;;1708087;84;20988;-72
2022/04/12 10:48:01;;;;;;;3.30;1.80;;;;;;;;;;1708065;84;21052;-72
2022/04/12 10:50:30;;;;;;;3.95;1.85;;;;;;;;;;1708202;84;21055;-72
2022/04/12 10:52:56;;;;;;;2.83;1.40;;;;;;;;;;1708085;84;21075;-72
2022/04/12 10:58:29;;;;;;;4.17;1.82;;;;;;;;;;1820313;79;23366;-72
2022/04/12 11:00:56;;;;;;;4.47;1.87;;;;;;;;;;1793211;80;21028;-71
2022/04/12 11:03:43;;;;;;;4.42;2.08;;;;;;;;;;1793002;80;21083;-71
2022/04/12 11:06:10;;;;;;;4.22;2.08;;;;;;;;;;1793139;80;20997;-72
2022/04/12 11:08:38;;;;;;;3.33;1.80;;;;;;;;;;1793004;79;21056;-72
2022/04/12 11:11:06;;;;;;;3.02;2.00;;;;;;;;;;1793127;80;21590;-71
2022/04/12 11:13:33;;;;;;;5.08;1.80;;;;;;;;;;1793111;80;21079;-72
2022/04/12 11:16:09;;;;;;;5.25;1.62;;;;;;;;;;1793163;80;21033;-73
2022/04/12 11:18:52;;;;;;;3.55;1.70;;;;;;;;;;1792935;80;21071;-72
2022/04/12 11:21:18;;;;;;;3.10;1.52;;;;;;;;;;1793068;80;21052;-73
2022/04/12 11:23:47;;;;;;;2.00;1.42;;;;;;;;;;1792940;80;21044;-74
2022/04/12 11:26:32;;;;;;;2.40;1.40;;;;;;;;;;1793009;80;21040;-74
2022/04/12 11:28:58;;;;;;;2.95;1.80;;;;;;;;;;1792838;80;21064;-73
2022/04/12 11:31:26;;;;;;;3.08;1.50;;;;;;;;;;1793046;80;21039;-74
2022/04/12 11:33:52;;;;;;;1.45;1.20;;;;;;;;;;1792816;80;21056;-73
2022/04/12 11:36:19;;;;;;;2.30;1.60;;;;;;;;;;1793086;80;21024;-74
2022/04/12 11:38:47;;;;;;;3.12;2.25;;;;;;;;;;1793136;80;21040;-74
2022/04/12 11:41:13;;;;;;;4.00;1.50;;;;;;;;;;1792946;80;21044;-74
2022/04/12 11:43:40;;;;;;;4.65;1.90;;;;;;;;;;1762418;80;21583;-73
2022/04/12 11:46:06;;;;;;;2.85;1.60;;;;;;;;;;1792846;80;21020;-74
2022/04/12 11:48:33;;;;;;;4.67;1.57;;;;;;;;;;1793038;80;21063;-74
2022/04/12 11:51:00;;;;;;;6.25;1.92;;;;;;;;;;1793315;80;21016;-73
2022/04/12 11:53:27;;;;;;;3.62;1.50;;;;;;;;;;1792830;80;20993;-73
2022/04/12 11:56:04;;;;;;;5.60;1.80;;;;;;;;;;1793192;80;21563;-74
2022/04/12 11:58:31;;;;;;;3.50;1.60;;;;;;;;;;1779864;80;21092;-73
2022/04/12 12:00:57;;;;;;;3.27;1.52;;;;;;;;;;1779447;81;21005;-74
2022/04/12 12:03:24;;;;;;;2.58;1.60;;;;;;;;;;1779444;80;21048;-74
2022/04/12 12:05:50;;;;;;;4.45;2.25;;;;;;;;;;1779473;81;21056;-73
2022/04/12 12:08:22;;;;;;;4.65;1.80;;;;;;;;;;1779211;81;21005;-74
2022/04/12 12:10:52;;;;;;;3.27;1.77;;;;;;;;;;1779083;81;21072;-72
2022/04/12 12:13:17;;;;;;;4.12;2.00;;;;;;;;;;1778475;81;21517;-73
2022/04/12 12:15:44;;;;;;;4.75;2.22;;;;;;;;;;1779029;81;21009;-73
2022/04/12 12:18:10;;;;;;;3.35;2.00;;;;;;;;;;1778668;81;21102;-72
2022/04/12 12:20:37;;;;;;;1.57;1.35;;;;;;;;;;1779037;81;21045;-72
2022/04/12 12:23:07;;;;;;;3.58;1.87;;;;;;;;;;1778800;81;21060;-73
2022/04/12 12:25:45;;;;;;;2.92;1.75;;;;;;;;;;1778935;81;21044;-72
2022/04/12 12:28:16;;;;;;;3.22;1.65;;;;;;;;;;1777192;80;20994;-73
2022/04/12 12:30:42;;;;;;;3.58;2.50;;;;;;;;;;1778816;81;21100;-72
2022/04/12 12:33:09;;;;;;;2.62;1.70;;;;;;;;;;1778744;81;21029;-73
2022/04/12 12:35:39;;;;;;;4.65;2.00;;;;;;;;;;1778727;81;21033;-73
2022/04/12 12:38:13;;;;;;;3.55;1.62;;;;;;;;;;1778763;80;21517;-73
2022/04/12 12:40:39;;;;;;;3.35;1.60;;;;;;;;;;1778706;81;21100;-73
2022/04/12 12:43:10;;;;;;;3.17;1.60;;;;;;;;;;1778927;81;21041;-72
2022/04/12 12:45:38;;;;;;;4.40;2.00;;;;;;;;;;1778843;81;21036;-72
2022/04/12 12:48:06;;;;;;;4.25;1.95;;;;;;;;;;1778834;81;21029;-72
2022/04/12 12:50:32;;;;;;;5.58;2.02;;;;;;;;;;1778870;81;21512;-72
2022/04/12 12:52:59;;;;;;;3.58;1.87;;;;;;;;;;1756761;81;21024;-70
2022/04/12 12:55:26;;;;;;;5.62;2.00;;;;;;;;;;1778995;81;21041;-72
2022/04/12 12:57:53;;;;;;;4.42;1.40;;;;;;;;;;1782300;80;21101;-72
2022/04/12 13:00:21;;;;;;;3.25;1.60;;;;;;;;;;1784524;80;21501;-72
2022/04/12 13:02:47;;;;;;;2.87;1.60;;;;;;;;;;1783279;80;21041;-72
2022/04/12 13:05:17;;;;;;;5.15;1.70;;;;;;;;;;1784341;80;21041;-72
2022/04/12 13:07:44;;;;;;;3.30;1.80;;;;;;;;;;1784401;80;21005;-72
2022/04/12 13:10:12;;;;;;;4.22;1.77;;;;;;;;;;1784701;80;21099;-72
2022/04/12 13:12:40;;;;;;;5.70;2.40;;;;;;;;;;1784530;80;21036;-72
2022/04/12 13:15:07;;;;;;;3.12;2.02;;;;;;;;;;1784848;80;21093;-71
2022/04/12 13:17:35;;;;;;;5.28;1.80;;;;;;;;;;1784487;80;21033;-72
2022/04/12 13:20:02;;;;;;;6.58;2.10;;;;;;;;;;1784563;80;21053;-72
2022/04/12 13:22:29;;;;;;;3.22;1.90;;;;;;;;;;1784693;80;21076;-72
2022/04/12 13:24:57;;;;;;;3.55;1.75;;;;;;;;;;1784392;80;21033;-72
2022/04/12 13:27:23;;;;;;;4.37;2.05;;;;;;;;;;1784611;80;21005;-71
2022/04/12 13:29:50;;;;;;;4.30;2.27;;;;;;;;;;1784459;80;21036;-71
2022/04/12 13:32:17;;;;;;;2.90;1.70;;;;;;;;;;1784362;80;21025;-71
2022/04/12 13:34:43;;;;;;;5.08;2.25;;;;;;;;;;1784537;80;20989;-71
2022/04/12 13:37:09;;;;;;;3.12;1.70;;;;;;;;;;1784380;80;21072;-72
2022/04/12 13:39:37;;;;;;;3.37;1.80;;;;;;;;;;1784621;80;21005;-72
2022/04/12 13:42:05;;;;;;;4.67;2.47;;;;;;;;;;1784657;80;21076;-72
2022/04/12 13:44:32;;;;;;;3.83;2.00;;;;;;;;;;1784408;80;21075;-74
2022/04/12 13:46:59;;;;;;;3.62;2.35;;;;;;;;;;1784610;80;20977;-73
2022/04/12 13:49:26;;;;;;;4.67;2.50;;;;;;;;;;1784376;80;21591;-72
2022/04/12 13:51:52;;;;;;;5.25;2.15;;;;;;;;;;1784678;80;21041;-72
2022/04/12 13:54:19;;;;;;;5.97;2.83;;;;;;;;;;1784462;80;21056;-71
2022/04/12 13:56:45;;;;;;;4.72;1.98;;;;;;;;;;1784381;80;21516;-70
2022/04/12 13:59:11;;;;;;;5.30;2.12;;;;;;;;;;1778715;80;21531;-71
2022/04/12 14:01:38;;;;;;;7.03;2.83;;;;;;;;;;1778585;80;21032;-72
2022/04/12 14:04:05;;;;;;;8.60;3.62;;;;;;;;;;1778662;81;21092;-72
2022/04/12 14:06:31;;;;;;;7.78;3.50;;;;;;;;;;1778762;81;21499;-72
2022/04/12 14:08:57;;;;;;;7.17;2.98;;;;;;;;;;1778741;80;21029;-70
2022/04/12 14:11:24;;;;;;;5.72;2.10;;;;;;;;;;1778899;80;21103;-71
2022/04/12 14:13:51;;;;;;;3.85;1.60;;;;;;;;;;1778664;80;21587;-71
2022/04/12 14:16:19;;;;;;;7.03;2.62;;;;;;;;;;1778682;80;21072;-72
2022/04/12 14:18:45;;;;;;;6.20;2.83;;;;;;;;;;1778736;81;21048;-71
2022/04/12 14:21:12;;;;;;;7.35;2.50;;;;;;;;;;1778550;81;22056;-72
2022/04/12 14:23:39;;;;;;;8.45;3.35;;;;;;;;;;1778992;81;21037;-71
2022/04/12 14:26:05;;;;;;;6.30;2.58;;;;;;;;;;1778617;81;21048;-72
2022/04/12 14:28:34;;;;;;;4.72;1.80;;;;;;;;;;1778866;80;21065;-71
2022/04/12 14:31:02;;;;;;;5.35;2.45;;;;;;;;;;1778737;81;21033;-71
2022/04/12 14:33:28;;;;;;;8.58;3.20;;;;;;;;;;1778600;81;21092;-71
2022/04/12 14:35:54;;;;;;;5.50;2.22;;;;;;;;;;1778940;81;21108;-71
2022/04/12 14:38:23;;;;;;;3.92;1.72;;;;;;;;;;1778692;81;21072;-71
2022/04/12 14:40:54;;;;;;;1.95;1.32;;;;;;;;;;1778852;81;21052;-71
2022/04/12 14:43:19;;;;;;;5.30;2.67;;;;;;;;;;1778801;81;21026;-71
2022/04/12 14:45:47;;;;;;;4.28;2.22;;;;;;;;;;1778746;80;21025;-71
2022/04/12 14:48:15;;;;;;;5.60;2.40;;;;;;;;;;1778526;81;21092;-71
2022/04/12 14:50:41;;;;;;;5.62;2.58;;;;;;;;;;1778608;81;21493;-71